sensor_id;sensor_type;location;lat;lon;timestamp;temperature;humidity
32600;DHT22;19277;51.778;7.912;2023-07-13T00:02:23;20.80;78.00
32600;DHT22;19277;51.778;7.912;2023-07-13T00:04:50;20.80;78.30
32600;DHT22;19277;51.778;7.912;2023-07-13T00:07:16;20.90;78.10
32600;DHT22;19277;51.778;7.912;2023-07-13T00:09:45;20.90;77.50
32600;DHT22;19277;51.778;7.912;2023-07-13T00:14:51;20.90;77.30
32600;DHT22;19277;51.778;7.912;2023-07-13T00:17:17;20.90;76.90
32600;DHT22;19277;51.778;7.912;2023-07-13T00:19:42;20.90;77.00
32600;DHT22;19277;51.778;7.912;2023-07-13T00:22:08;20.90;76.90
32600;DHT22;19277;51.778;7.912;2023-07-13T00:24:34;20.90;76.70
32600;DHT22;19277;51.778;7.912;2023-07-13T00:27:01;21.00;76.70
32600;DHT22;19277;51.778;7.912;2023-07-13T00:29:26;21.00;76.70
32600;DHT22;19277;51.778;7.912;2023-07-13T00:31:52;21.00;76.30
32600;DHT22;19277;51.778;7.912;2023-07-13T00:34:18;21.00;76.20
32600;DHT22;19277;51.778;7.912;2023-07-13T00:36:43;21.10;75.90
32600;DHT22;19277;51.778;7.912;2023-07-13T00:39:09;21.10;76.00
32600;DHT22;19277;51.778;7.912;2023-07-13T00:41:35;21.20;75.50
32600;DHT22;19277;51.778;7.912;2023-07-13T00:44:02;21.30;75.00
32600;DHT22;19277;51.778;7.912;2023-07-13T00:46:31;21.30;74.70
32600;DHT22;19277;51.778;7.912;2023-07-13T00:49:02;21.40;74.80
32600;DHT22;19277;51.778;7.912;2023-07-13T00:51:40;21.40;74.60
32600;DHT22;19277;51.778;7.912;2023-07-13T00:54:11;21.10;75.50
32600;DHT22;19277;51.778;7.912;2023-07-13T00:56:38;20.70;76.90
32600;DHT22;19277;51.778;7.912;2023-07-13T00:59:06;20.30;77.80
32600;DHT22;19277;51.778;7.912;2023-07-13T01:01:32;20.00;79.00
32600;DHT22;19277;51.778;7.912;2023-07-13T01:03:57;19.70;80.20
32600;DHT22;19277;51.778;7.912;2023-07-13T01:06:23;19.60;81.10
32600;DHT22;19277;51.778;7.912;2023-07-13T01:08:48;19.50;81.90
32600;DHT22;19277;51.778;7.912;2023-07-13T01:11:20;19.30;82.80
32600;DHT22;19277;51.778;7.912;2023-07-13T01:13:46;19.10;83.10
32600;DHT22;19277;51.778;7.912;2023-07-13T01:16:27;19.10;83.40
32600;DHT22;19277;51.778;7.912;2023-07-13T01:18:54;19.10;83.50
32600;DHT22;19277;51.778;7.912;2023-07-13T01:21:24;19.00;84.10
32600;DHT22;19277;51.778;7.912;2023-07-13T01:23:49;18.90;84.30
32600;DHT22;19277;51.778;7.912;2023-07-13T01:26:16;18.90;85.00
32600;DHT22;19277;51.778;7.912;2023-07-13T01:28:41;18.90;84.60
32600;DHT22;19277;51.778;7.912;2023-07-13T01:31:07;18.80;85.10
32600;DHT22;19277;51.778;7.912;2023-07-13T01:33:34;18.70;85.40
32600;DHT22;19277;51.778;7.912;2023-07-13T01:35:59;18.60;86.40
32600;DHT22;19277;51.778;7.912;2023-07-13T01:38:26;18.60;86.10
32600;DHT22;19277;51.778;7.912;2023-07-13T01:40:52;18.40;86.60
32600;DHT22;19277;51.778;7.912;2023-07-13T01:43:18;18.40;87.00
32600;DHT22;19277;51.778;7.912;2023-07-13T01:45:44;18.40;87.20
32600;DHT22;19277;51.778;7.912;2023-07-13T01:48:10;18.40;87.20
32600;DHT22;19277;51.778;7.912;2023-07-13T01:50:36;18.40;87.10
32600;DHT22;19277;51.778;7.912;2023-07-13T01:53:02;18.30;87.50
32600;DHT22;19277;51.778;7.912;2023-07-13T01:55:29;18.30;87.60
32600;DHT22;19277;51.778;7.912;2023-07-13T01:57:55;18.30;87.70
32600;DHT22;19277;51.778;7.912;2023-07-13T02:00:21;18.30;87.80
32600;DHT22;19277;51.778;7.912;2023-07-13T02:02:47;18.40;87.40
32600;DHT22;19277;51.778;7.912;2023-07-13T02:05:13;18.40;87.20
32600;DHT22;19277;51.778;7.912;2023-07-13T02:07:39;18.30;87.10
32600;DHT22;19277;51.778;7.912;2023-07-13T02:10:06;18.30;87.20
32600;DHT22;19277;51.778;7.912;2023-07-13T02:12:33;18.20;87.10
32600;DHT22;19277;51.778;7.912;2023-07-13T02:14:58;18.20;86.80
32600;DHT22;19277;51.778;7.912;2023-07-13T02:17:25;18.20;86.90
32600;DHT22;19277;51.778;7.912;2023-07-13T02:19:51;18.10;87.20
32600;DHT22;19277;51.778;7.912;2023-07-13T02:22:16;18.10;87.70
32600;DHT22;19277;51.778;7.912;2023-07-13T02:24:42;18.00;87.50
32600;DHT22;19277;51.778;7.912;2023-07-13T02:27:07;18.00;87.70
32600;DHT22;19277;51.778;7.912;2023-07-13T02:29:33;18.00;87.60
32600;DHT22;19277;51.778;7.912;2023-07-13T02:31:59;17.90;87.60
32600;DHT22;19277;51.778;7.912;2023-07-13T02:34:24;17.80;87.70
32600;DHT22;19277;51.778;7.912;2023-07-13T02:36:50;17.70;87.80
32600;DHT22;19277;51.778;7.912;2023-07-13T02:39:15;17.60;88.20
32600;DHT22;19277;51.778;7.912;2023-07-13T02:41:41;17.60;88.00
32600;DHT22;19277;51.778;7.912;2023-07-13T02:44:06;17.50;88.20
32600;DHT22;19277;51.778;7.912;2023-07-13T02:46:35;17.50;88.20
32600;DHT22;19277;51.778;7.912;2023-07-13T02:49:01;17.40;88.40
32600;DHT22;19277;51.778;7.912;2023-07-13T02:51:26;17.50;88.30
32600;DHT22;19277;51.778;7.912;2023-07-13T02:53:52;17.50;87.80
32600;DHT22;19277;51.778;7.912;2023-07-13T02:56:22;17.60;86.90
32600;DHT22;19277;51.778;7.912;2023-07-13T02:58:48;17.50;86.80
32600;DHT22;19277;51.778;7.912;2023-07-13T03:01:13;17.50;85.80
32600;DHT22;19277;51.778;7.912;2023-07-13T03:03:45;17.50;85.80
32600;DHT22;19277;51.778;7.912;2023-07-13T03:06:11;17.40;85.80
32600;DHT22;19277;51.778;7.912;2023-07-13T03:08:37;17.40;85.80
32600;DHT22;19277;51.778;7.912;2023-07-13T03:11:08;17.30;86.00
32600;DHT22;19277;51.778;7.912;2023-07-13T03:13:36;17.40;85.50
32600;DHT22;19277;51.778;7.912;2023-07-13T03:16:02;17.20;85.90
32600;DHT22;19277;51.778;7.912;2023-07-13T03:18:28;17.20;86.00
32600;DHT22;19277;51.778;7.912;2023-07-13T03:20:54;17.20;86.00
32600;DHT22;19277;51.778;7.912;2023-07-13T03:23:20;17.20;86.20
32600;DHT22;19277;51.778;7.912;2023-07-13T03:25:46;17.10;86.60
32600;DHT22;19277;51.778;7.912;2023-07-13T03:28:13;17.10;86.50
32600;DHT22;19277;51.778;7.912;2023-07-13T03:30:40;17.00;86.70
32600;DHT22;19277;51.778;7.912;2023-07-13T03:33:06;17.10;86.70
32600;DHT22;19277;51.778;7.912;2023-07-13T03:35:31;17.10;86.30
32600;DHT22;19277;51.778;7.912;2023-07-13T03:37:58;17.10;86.30
32600;DHT22;19277;51.778;7.912;2023-07-13T03:40:25;17.00;87.00
32600;DHT22;19277;51.778;7.912;2023-07-13T03:42:51;16.90;87.00
32600;DHT22;19277;51.778;7.912;2023-07-13T03:45:17;16.90;86.80
32600;DHT22;19277;51.778;7.912;2023-07-13T03:47:43;16.90;86.80
32600;DHT22;19277;51.778;7.912;2023-07-13T03:50:09;17.00;86.70
32600;DHT22;19277;51.778;7.912;2023-07-13T03:52:34;17.10;86.30
32600;DHT22;19277;51.778;7.912;2023-07-13T03:55:00;17.00;86.30
32600;DHT22;19277;51.778;7.912;2023-07-13T03:57:26;17.00;86.40
32600;DHT22;19277;51.778;7.912;2023-07-13T03:59:51;17.00;86.70
32600;DHT22;19277;51.778;7.912;2023-07-13T04:02:17;16.90;87.00
32600;DHT22;19277;51.778;7.912;2023-07-13T04:04:43;17.00;86.90
32600;DHT22;19277;51.778;7.912;2023-07-13T04:07:09;17.00;86.40
32600;DHT22;19277;51.778;7.912;2023-07-13T04:09:35;17.00;86.10
32600;DHT22;19277;51.778;7.912;2023-07-13T04:12:01;17.10;85.90
32600;DHT22;19277;51.778;7.912;2023-07-13T04:14:26;17.20;85.80
32600;DHT22;19277;51.778;7.912;2023-07-13T04:16:52;17.20;85.60
32600;DHT22;19277;51.778;7.912;2023-07-13T04:19:20;17.40;85.60
32600;DHT22;19277;51.778;7.912;2023-07-13T04:21:45;17.50;85.00
32600;DHT22;19277;51.778;7.912;2023-07-13T04:24:11;17.40;84.90
32600;DHT22;19277;51.778;7.912;2023-07-13T04:26:37;17.40;84.90
32600;DHT22;19277;51.778;7.912;2023-07-13T04:29:03;17.50;85.00
32600;DHT22;19277;51.778;7.912;2023-07-13T04:31:30;17.60;84.80
32600;DHT22;19277;51.778;7.912;2023-07-13T04:33:55;17.70;84.70
32600;DHT22;19277;51.778;7.912;2023-07-13T04:36:21;17.70;84.70
32600;DHT22;19277;51.778;7.912;2023-07-13T04:38:46;17.70;84.40
32600;DHT22;19277;51.778;7.912;2023-07-13T04:41:13;17.80;84.40
32600;DHT22;19277;51.778;7.912;2023-07-13T04:43:40;17.80;84.50
32600;DHT22;19277;51.778;7.912;2023-07-13T04:46:07;17.90;84.50
32600;DHT22;19277;51.778;7.912;2023-07-13T04:48:34;17.90;84.10
32600;DHT22;19277;51.778;7.912;2023-07-13T04:51:00;17.90;84.70
32600;DHT22;19277;51.778;7.912;2023-07-13T04:53:26;17.90;84.60
32600;DHT22;19277;51.778;7.912;2023-07-13T04:55:52;18.10;83.70
32600;DHT22;19277;51.778;7.912;2023-07-13T04:58:18;18.30;83.30
32600;DHT22;19277;51.778;7.912;2023-07-13T05:00:43;18.40;82.90
32600;DHT22;19277;51.778;7.912;2023-07-13T05:03:09;18.40;82.70
32600;DHT22;19277;51.778;7.912;2023-07-13T05:05:35;18.60;82.60
32600;DHT22;19277;51.778;7.912;2023-07-13T05:08:00;18.70;82.10
32600;DHT22;19277;51.778;7.912;2023-07-13T05:10:27;18.80;81.70
32600;DHT22;19277;51.778;7.912;2023-07-13T05:12:53;18.90;81.20
32600;DHT22;19277;51.778;7.912;2023-07-13T05:15:21;19.10;80.70
32600;DHT22;19277;51.778;7.912;2023-07-13T05:17:48;19.10;81.00
32600;DHT22;19277;51.778;7.912;2023-07-13T05:20:14;19.30;79.80
32600;DHT22;19277;51.778;7.912;2023-07-13T05:22:40;19.40;79.80
32600;DHT22;19277;51.778;7.912;2023-07-13T05:25:07;19.50;79.40
32600;DHT22;19277;51.778;7.912;2023-07-13T05:27:34;19.60;79.20
32600;DHT22;19277;51.778;7.912;2023-07-13T05:30:00;19.70;79.10
32600;DHT22;19277;51.778;7.912;2023-07-13T05:32:26;19.60;79.60
32600;DHT22;19277;51.778;7.912;2023-07-13T05:34:51;19.70;79.40
32600;DHT22;19277;51.778;7.912;2023-07-13T05:37:18;19.80;78.90
32600;DHT22;19277;51.778;7.912;2023-07-13T05:39:43;19.80;78.80
32600;DHT22;19277;51.778;7.912;2023-07-13T05:42:09;19.90;78.70
32600;DHT22;19277;51.778;7.912;2023-07-13T05:44:35;19.90;79.20
32600;DHT22;19277;51.778;7.912;2023-07-13T05:47:01;20.00;79.80
32600;DHT22;19277;51.778;7.912;2023-07-13T05:49:26;20.00;78.80
32600;DHT22;19277;51.778;7.912;2023-07-13T05:51:52;20.20;78.40
32600;DHT22;19277;51.778;7.912;2023-07-13T05:54:18;20.40;77.90
32600;DHT22;19277;51.778;7.912;2023-07-13T05:56:43;20.40;77.90
32600;DHT22;19277;51.778;7.912;2023-07-13T05:59:09;20.50;77.80
32600;DHT22;19277;51.778;7.912;2023-07-13T06:01:35;20.60;77.70
32600;DHT22;19277;51.778;7.912;2023-07-13T06:04:00;20.70;77.30
32600;DHT22;19277;51.778;7.912;2023-07-13T06:06:26;20.70;76.90
32600;DHT22;19277;51.778;7.912;2023-07-13T06:08:52;20.80;77.00
32600;DHT22;19277;51.778;7.912;2023-07-13T06:11:20;21.00;76.70
32600;DHT22;19277;51.778;7.912;2023-07-13T06:13:46;21.00;76.40
32600;DHT22;19277;51.778;7.912;2023-07-13T06:16:13;20.90;76.80
32600;DHT22;19277;51.778;7.912;2023-07-13T06:18:39;20.90;77.00
32600;DHT22;19277;51.778;7.912;2023-07-13T06:21:19;20.90;77.40
32600;DHT22;19277;51.778;7.912;2023-07-13T06:23:47;21.10;77.40
32600;DHT22;19277;51.778;7.912;2023-07-13T06:26:15;21.10;77.10
32600;DHT22;19277;51.778;7.912;2023-07-13T06:28:41;21.00;77.30
32600;DHT22;19277;51.778;7.912;2023-07-13T06:31:09;21.10;77.60
32600;DHT22;19277;51.778;7.912;2023-07-13T06:33:35;21.30;76.90
32600;DHT22;19277;51.778;7.912;2023-07-13T06:36:03;21.20;77.50
32600;DHT22;19277;51.778;7.912;2023-07-13T06:38:29;21.30;77.00
32600;DHT22;19277;51.778;7.912;2023-07-13T06:40:55;21.20;77.00
32600;DHT22;19277;51.778;7.912;2023-07-13T06:43:20;21.30;76.80
32600;DHT22;19277;51.778;7.912;2023-07-13T06:45:47;21.30;76.90
32600;DHT22;19277;51.778;7.912;2023-07-13T06:48:19;21.30;76.70
32600;DHT22;19277;51.778;7.912;2023-07-13T06:50:45;21.40;76.60
32600;DHT22;19277;51.778;7.912;2023-07-13T06:53:12;21.70;76.50
32600;DHT22;19277;51.778;7.912;2023-07-13T06:55:38;22.10;75.80
32600;DHT22;19277;51.778;7.912;2023-07-13T06:58:04;22.40;75.10
32600;DHT22;19277;51.778;7.912;2023-07-13T07:00:30;22.70;73.70
32600;DHT22;19277;51.778;7.912;2023-07-13T07:02:56;22.90;73.20
32600;DHT22;19277;51.778;7.912;2023-07-13T07:05:21;23.00;72.50
32600;DHT22;19277;51.778;7.912;2023-07-13T07:07:49;23.00;72.90
32600;DHT22;19277;51.778;7.912;2023-07-13T07:10:15;23.10;72.80
32600;DHT22;19277;51.778;7.912;2023-07-13T07:12:40;23.20;72.50
32600;DHT22;19277;51.778;7.912;2023-07-13T07:15:06;23.20;72.10
32600;DHT22;19277;51.778;7.912;2023-07-13T07:17:32;23.10;72.30
32600;DHT22;19277;51.778;7.912;2023-07-13T07:19:58;23.10;72.20
32600;DHT22;19277;51.778;7.912;2023-07-13T07:22:23;23.00;72.40
32600;DHT22;19277;51.778;7.912;2023-07-13T07:24:52;23.00;72.90
32600;DHT22;19277;51.778;7.912;2023-07-13T07:27:18;23.10;72.80
32600;DHT22;19277;51.778;7.912;2023-07-13T07:29:43;23.20;72.90
32600;DHT22;19277;51.778;7.912;2023-07-13T07:32:09;23.40;72.30
32600;DHT22;19277;51.778;7.912;2023-07-13T07:34:34;23.60;72.00
32600;DHT22;19277;51.778;7.912;2023-07-13T07:37:01;23.80;71.20
32600;DHT22;19277;51.778;7.912;2023-07-13T07:39:27;24.00;70.50
32600;DHT22;19277;51.778;7.912;2023-07-13T07:41:53;24.10;70.20
32600;DHT22;19277;51.778;7.912;2023-07-13T07:44:18;24.10;69.80
32600;DHT22;19277;51.778;7.912;2023-07-13T07:46:44;24.00;69.60
32600;DHT22;19277;51.778;7.912;2023-07-13T07:49:10;23.80;70.30
32600;DHT22;19277;51.778;7.912;2023-07-13T07:51:36;23.90;70.70
32600;DHT22;19277;51.778;7.912;2023-07-13T07:54:02;23.90;70.30
32600;DHT22;19277;51.778;7.912;2023-07-13T07:56:28;23.90;69.30
32600;DHT22;19277;51.778;7.912;2023-07-13T07:58:54;23.80;70.00
32600;DHT22;19277;51.778;7.912;2023-07-13T08:01:19;23.90;70.20
32600;DHT22;19277;51.778;7.912;2023-07-13T08:03:45;24.00;70.00
32600;DHT22;19277;51.778;7.912;2023-07-13T08:06:10;24.10;69.20
32600;DHT22;19277;51.778;7.912;2023-07-13T08:08:36;24.10;69.30
32600;DHT22;19277;51.778;7.912;2023-07-13T08:11:04;24.10;69.30
32600;DHT22;19277;51.778;7.912;2023-07-13T08:13:29;24.20;69.60
32600;DHT22;19277;51.778;7.912;2023-07-13T08:15:55;24.20;70.10
32600;DHT22;19277;51.778;7.912;2023-07-13T08:18:20;24.30;70.30
32600;DHT22;19277;51.778;7.912;2023-07-13T08:20:46;24.40;69.70
32600;DHT22;19277;51.778;7.912;2023-07-13T08:23:12;24.40;69.00
32600;DHT22;19277;51.778;7.912;2023-07-13T08:25:37;24.40;69.60
32600;DHT22;19277;51.778;7.912;2023-07-13T08:28:03;24.40;69.10
32600;DHT22;19277;51.778;7.912;2023-07-13T08:30:29;24.40;69.50
32600;DHT22;19277;51.778;7.912;2023-07-13T08:32:55;24.30;69.20
32600;DHT22;19277;51.778;7.912;2023-07-13T08:35:21;24.30;69.70
32600;DHT22;19277;51.778;7.912;2023-07-13T08:37:46;24.30;69.90
32600;DHT22;19277;51.778;7.912;2023-07-13T08:40:13;24.40;70.00
32600;DHT22;19277;51.778;7.912;2023-07-13T08:43:15;24.30;69.10
32600;DHT22;19277;51.778;7.912;2023-07-13T08:45:49;24.30;69.60
32600;DHT22;19277;51.778;7.912;2023-07-13T08:48:26;24.30;68.70
32600;DHT22;19277;51.778;7.912;2023-07-13T08:53:53;24.40;68.80
32600;DHT22;19277;51.778;7.912;2023-07-13T08:56:25;24.40;69.20
32600;DHT22;19277;51.778;7.912;2023-07-13T08:58:57;24.40;69.10
32600;DHT22;19277;51.778;7.912;2023-07-13T09:01:45;24.40;68.90
32600;DHT22;19277;51.778;7.912;2023-07-13T09:04:20;24.50;68.50
32600;DHT22;19277;51.778;7.912;2023-07-13T09:12:19;24.50;68.20
32600;DHT22;19277;51.778;7.912;2023-07-13T09:14:54;24.50;68.20
32600;DHT22;19277;51.778;7.912;2023-07-13T09:17:25;24.40;67.80
32600;DHT22;19277;51.778;7.912;2023-07-13T09:20:01;24.50;68.00
32600;DHT22;19277;51.778;7.912;2023-07-13T09:22:32;24.50;67.90
32600;DHT22;19277;51.778;7.912;2023-07-13T09:25:51;24.50;67.10
32600;DHT22;19277;51.778;7.912;2023-07-13T09:27:54;24.50;67.00
32600;DHT22;19277;51.778;7.912;2023-07-13T09:30:23;24.60;67.70
32600;DHT22;19277;51.778;7.912;2023-07-13T09:32:53;24.60;67.20
32600;DHT22;19277;51.778;7.912;2023-07-13T09:35:21;24.60;67.90
32600;DHT22;19277;51.778;7.912;2023-07-13T09:37:47;24.60;68.20
32600;DHT22;19277;51.778;7.912;2023-07-13T09:40:40;24.70;68.40
32600;DHT22;19277;51.778;7.912;2023-07-13T09:43:11;24.80;68.40
32600;DHT22;19277;51.778;7.912;2023-07-13T09:45:38;24.80;67.70
32600;DHT22;19277;51.778;7.912;2023-07-13T09:48:10;24.80;66.80
32600;DHT22;19277;51.778;7.912;2023-07-13T09:50:36;24.80;67.20
32600;DHT22;19277;51.778;7.912;2023-07-13T09:53:02;24.80;67.50
32600;DHT22;19277;51.778;7.912;2023-07-13T09:55:38;24.80;67.30
32600;DHT22;19277;51.778;7.912;2023-07-13T10:00:38;24.80;66.60
32600;DHT22;19277;51.778;7.912;2023-07-13T10:03:18;24.80;67.10
32600;DHT22;19277;51.778;7.912;2023-07-13T10:05:47;24.80;67.20
32600;DHT22;19277;51.778;7.912;2023-07-13T10:08:25;24.80;66.70
32600;DHT22;19277;51.778;7.912;2023-07-13T10:11:09;24.80;67.10
32600;DHT22;19277;51.778;7.912;2023-07-13T10:13:40;24.80;67.50
32600;DHT22;19277;51.778;7.912;2023-07-13T10:16:07;24.90;67.00
32600;DHT22;19277;51.778;7.912;2023-07-13T10:18:48;24.90;67.20
32600;DHT22;19277;51.778;7.912;2023-07-13T10:21:19;24.90;67.20
32600;DHT22;19277;51.778;7.912;2023-07-13T10:23:55;24.90;67.00
32600;DHT22;19277;51.778;7.912;2023-07-13T10:26:31;24.90;67.30
32600;DHT22;19277;51.778;7.912;2023-07-13T10:29:00;24.90;67.30
32600;DHT22;19277;51.778;7.912;2023-07-13T10:31:27;24.90;67.10
32600;DHT22;19277;51.778;7.912;2023-07-13T10:33:53;24.90;67.00
32600;DHT22;19277;51.778;7.912;2023-07-13T10:36:46;25.00;66.90
32600;DHT22;19277;51.778;7.912;2023-07-13T10:39:27;24.90;66.00
32600;DHT22;19277;51.778;7.912;2023-07-13T10:42:05;25.00;66.10
32600;DHT22;19277;51.778;7.912;2023-07-13T10:44:33;25.00;66.80
32600;DHT22;19277;51.778;7.912;2023-07-13T10:47:04;25.00;67.00
32600;DHT22;19277;51.778;7.912;2023-07-13T10:49:33;25.00;66.50
32600;DHT22;19277;51.778;7.912;2023-07-13T10:52:00;25.00;66.30
32600;DHT22;19277;51.778;7.912;2023-07-13T10:57:21;25.00;66.70
32600;DHT22;19277;51.778;7.912;2023-07-13T11:00:16;25.10;67.00
32600;DHT22;19277;51.778;7.912;2023-07-13T11:02:42;25.10;67.00
32600;DHT22;19277;51.778;7.912;2023-07-13T11:05:28;25.10;66.40
32600;DHT22;19277;51.778;7.912;2023-07-13T11:13:58;25.10;66.60
32600;DHT22;19277;51.778;7.912;2023-07-13T11:18:53;25.10;66.70
32600;DHT22;19277;51.778;7.912;2023-07-13T11:21:33;25.10;67.10
32600;DHT22;19277;51.778;7.912;2023-07-13T11:24:15;25.10;67.20
32600;DHT22;19277;51.778;7.912;2023-07-13T11:31:51;25.10;66.50
32600;DHT22;19277;51.778;7.912;2023-07-13T11:34:24;25.10;66.40
32600;DHT22;19277;51.778;7.912;2023-07-13T11:36:52;25.10;66.40
32600;DHT22;19277;51.778;7.912;2023-07-13T11:39:37;25.10;66.00
32600;DHT22;19277;51.778;7.912;2023-07-13T11:42:10;25.10;66.20
32600;DHT22;19277;51.778;7.912;2023-07-13T11:44:42;25.10;66.50
32600;DHT22;19277;51.778;7.912;2023-07-13T11:47:11;25.20;66.30
32600;DHT22;19277;51.778;7.912;2023-07-13T11:49:48;25.20;66.20
32600;DHT22;19277;51.778;7.912;2023-07-13T11:52:16;25.20;65.90
32600;DHT22;19277;51.778;7.912;2023-07-13T11:54:54;25.20;65.80
32600;DHT22;19277;51.778;7.912;2023-07-13T11:57:32;25.20;65.30
32600;DHT22;19277;51.778;7.912;2023-07-13T12:00:02;25.20;65.10
32600;DHT22;19277;51.778;7.912;2023-07-13T12:02:32;25.20;64.80
32600;DHT22;19277;51.778;7.912;2023-07-13T12:05:00;25.20;65.40
32600;DHT22;19277;51.778;7.912;2023-07-13T12:07:29;25.20;65.00
32600;DHT22;19277;51.778;7.912;2023-07-13T12:12:33;25.20;65.10
32600;DHT22;19277;51.778;7.912;2023-07-13T12:14:58;25.20;65.30
32600;DHT22;19277;51.778;7.912;2023-07-13T12:17:24;25.20;64.50
32600;DHT22;19277;51.778;7.912;2023-07-13T12:19:51;25.20;65.00
32600;DHT22;19277;51.778;7.912;2023-07-13T12:22:19;25.20;64.80
32600;DHT22;19277;51.778;7.912;2023-07-13T12:24:46;25.30;65.10
32600;DHT22;19277;51.778;7.912;2023-07-13T12:27:20;25.20;65.20
32600;DHT22;19277;51.778;7.912;2023-07-13T12:30:02;25.20;65.20
32600;DHT22;19277;51.778;7.912;2023-07-13T12:32:31;25.20;65.10
32600;DHT22;19277;51.778;7.912;2023-07-13T12:35:22;25.30;65.40
32600;DHT22;19277;51.778;7.912;2023-07-13T12:37:47;25.30;65.80
32600;DHT22;19277;51.778;7.912;2023-07-13T12:40:19;25.30;65.40
32600;DHT22;19277;51.778;7.912;2023-07-13T12:42:46;25.30;65.80
32600;DHT22;19277;51.778;7.912;2023-07-13T12:47:49;25.30;64.80
32600;DHT22;19277;51.778;7.912;2023-07-13T12:50:19;25.30;65.10
32600;DHT22;19277;51.778;7.912;2023-07-13T12:52:51;25.30;64.70
32600;DHT22;19277;51.778;7.912;2023-07-13T12:55:18;25.30;64.50
32600;DHT22;19277;51.778;7.912;2023-07-13T12:57:56;25.30;64.50
32600;DHT22;19277;51.778;7.912;2023-07-13T13:00:36;25.40;64.60
32600;DHT22;19277;51.778;7.912;2023-07-13T13:05:38;25.40;64.20
32600;DHT22;19277;51.778;7.912;2023-07-13T13:08:04;25.40;64.70
32600;DHT22;19277;51.778;7.912;2023-07-13T13:10:29;25.40;64.60
32600;DHT22;19277;51.778;7.912;2023-07-13T13:12:55;25.40;64.60
32600;DHT22;19277;51.778;7.912;2023-07-13T13:15:20;25.40;65.10
32600;DHT22;19277;51.778;7.912;2023-07-13T13:17:47;25.40;65.10
32600;DHT22;19277;51.778;7.912;2023-07-13T13:20:18;25.40;64.20
32600;DHT22;19277;51.778;7.912;2023-07-13T13:22:44;25.50;65.10
32600;DHT22;19277;51.778;7.912;2023-07-13T13:25:11;25.50;64.20
32600;DHT22;19277;51.778;7.912;2023-07-13T13:27:37;25.50;64.10
32600;DHT22;19277;51.778;7.912;2023-07-13T13:30:13;25.50;64.50
32600;DHT22;19277;51.778;7.912;2023-07-13T13:32:40;25.50;63.70
32600;DHT22;19277;51.778;7.912;2023-07-13T13:35:13;25.50;63.60
32600;DHT22;19277;51.778;7.912;2023-07-13T13:37:39;25.50;64.20
32600;DHT22;19277;51.778;7.912;2023-07-13T13:40:20;25.50;63.90
32600;DHT22;19277;51.778;7.912;2023-07-13T13:42:46;25.50;64.20
32600;DHT22;19277;51.778;7.912;2023-07-13T13:45:12;25.50;64.90
32600;DHT22;19277;51.778;7.912;2023-07-13T13:47:39;25.50;64.90
32600;DHT22;19277;51.778;7.912;2023-07-13T13:50:14;25.40;64.80
32600;DHT22;19277;51.778;7.912;2023-07-13T13:52:41;25.40;64.60
32600;DHT22;19277;51.778;7.912;2023-07-13T13:55:17;25.40;64.90
32600;DHT22;19277;51.778;7.912;2023-07-13T13:57:48;25.40;65.10
32600;DHT22;19277;51.778;7.912;2023-07-13T14:00:15;25.40;63.40
32600;DHT22;19277;51.778;7.912;2023-07-13T14:02:46;25.40;64.80
32600;DHT22;19277;51.778;7.912;2023-07-13T14:05:14;25.40;65.00
32600;DHT22;19277;51.778;7.912;2023-07-13T14:07:40;25.30;65.80
32600;DHT22;19277;51.778;7.912;2023-07-13T14:10:12;25.30;65.80
32600;DHT22;19277;51.778;7.912;2023-07-13T14:12:39;25.30;66.00
32600;DHT22;19277;51.778;7.912;2023-07-13T14:15:05;25.30;66.40
32600;DHT22;19277;51.778;7.912;2023-07-13T14:17:31;25.20;68.60
32600;DHT22;19277;51.778;7.912;2023-07-13T14:19:56;25.20;69.20
32600;DHT22;19277;51.778;7.912;2023-07-13T14:22:23;25.20;70.20
32600;DHT22;19277;51.778;7.912;2023-07-13T14:24:51;25.20;70.90
32600;DHT22;19277;51.778;7.912;2023-07-13T14:27:16;25.20;71.20
32600;DHT22;19277;51.778;7.912;2023-07-13T14:29:42;25.20;71.80
32600;DHT22;19277;51.778;7.912;2023-07-13T14:32:11;25.20;71.40
32600;DHT22;19277;51.778;7.912;2023-07-13T14:34:37;25.10;71.60
32600;DHT22;19277;51.778;7.912;2023-07-13T14:37:03;25.10;72.40
32600;DHT22;19277;51.778;7.912;2023-07-13T14:39:30;25.10;71.70
32600;DHT22;19277;51.778;7.912;2023-07-13T14:41:56;25.10;71.40
32600;DHT22;19277;51.778;7.912;2023-07-13T14:44:27;24.40;71.10
32600;DHT22;19277;51.778;7.912;2023-07-13T14:46:54;23.50;73.10
32600;DHT22;19277;51.778;7.912;2023-07-13T14:49:24;22.80;76.50
32600;DHT22;19277;51.778;7.912;2023-07-13T14:51:50;22.40;78.00
32600;DHT22;19277;51.778;7.912;2023-07-13T14:54:16;21.90;79.80
32600;DHT22;19277;51.778;7.912;2023-07-13T14:56:41;21.90;78.90
32600;DHT22;19277;51.778;7.912;2023-07-13T14:59:07;22.00;79.40
32600;DHT22;19277;51.778;7.912;2023-07-13T15:01:34;21.70;79.00
32600;DHT22;19277;51.778;7.912;2023-07-13T15:04:00;21.60;81.20
32600;DHT22;19277;51.778;7.912;2023-07-13T15:06:26;21.50;80.50
32600;DHT22;19277;51.778;7.912;2023-07-13T15:08:52;21.30;82.70
32600;DHT22;19277;51.778;7.912;2023-07-13T15:11:18;21.20;81.20
32600;DHT22;19277;51.778;7.912;2023-07-13T15:13:43;21.10;82.10
32600;DHT22;19277;51.778;7.912;2023-07-13T15:16:18;21.10;82.50
32600;DHT22;19277;51.778;7.912;2023-07-13T15:18:46;21.20;84.00
32600;DHT22;19277;51.778;7.912;2023-07-13T15:21:16;21.20;84.00
32600;DHT22;19277;51.778;7.912;2023-07-13T15:23:44;21.30;83.60
32600;DHT22;19277;51.778;7.912;2023-07-13T15:26:14;21.40;84.50
32600;DHT22;19277;51.778;7.912;2023-07-13T15:28:41;21.50;84.30
32600;DHT22;19277;51.778;7.912;2023-07-13T15:31:26;21.50;83.40
32600;DHT22;19277;51.778;7.912;2023-07-13T15:33:55;21.60;83.00
32600;DHT22;19277;51.778;7.912;2023-07-13T15:36:22;21.60;84.20
32600;DHT22;19277;51.778;7.912;2023-07-13T15:38:48;21.60;84.00
32600;DHT22;19277;51.778;7.912;2023-07-13T15:41:21;21.60;84.10
32600;DHT22;19277;51.778;7.912;2023-07-13T15:43:50;21.70;83.90
32600;DHT22;19277;51.778;7.912;2023-07-13T15:46:18;21.60;83.60
32600;DHT22;19277;51.778;7.912;2023-07-13T15:48:45;21.70;85.70
32600;DHT22;19277;51.778;7.912;2023-07-13T15:51:25;21.70;87.00
32600;DHT22;19277;51.778;7.912;2023-07-13T15:53:54;21.70;86.10
32600;DHT22;19277;51.778;7.912;2023-07-13T15:56:24;21.70;86.60
32600;DHT22;19277;51.778;7.912;2023-07-13T15:58:51;21.60;86.60
32600;DHT22;19277;51.778;7.912;2023-07-13T16:01:18;21.50;87.70
32600;DHT22;19277;51.778;7.912;2023-07-13T16:03:45;21.50;87.60
32600;DHT22;19277;51.778;7.912;2023-07-13T16:06:21;21.50;88.60
32600;DHT22;19277;51.778;7.912;2023-07-13T16:08:49;21.50;88.00
32600;DHT22;19277;51.778;7.912;2023-07-13T16:11:28;21.50;87.90
32600;DHT22;19277;51.778;7.912;2023-07-13T16:13:57;21.60;87.70
32600;DHT22;19277;51.778;7.912;2023-07-13T16:16:27;21.70;87.80